createdAt,value
2023-01-08T00:01:30.807Z,8.04
2023-01-08T00:03:59.699Z,8.12
2023-01-08T00:06:29.034Z,8.07
2023-01-08T00:08:57.726Z,8.20
2023-01-08T00:11:28.855Z,8.12
2023-01-08T00:14:01.045Z,8.06
2023-01-08T00:16:28.276Z,7.90
2023-01-08T00:18:57.678Z,7.85
2023-01-08T00:21:24.507Z,8.22
2023-01-08T00:23:53.813Z,8.28
2023-01-08T00:26:27.943Z,8.35
2023-01-08T00:28:59.267Z,8.37
2023-01-08T00:31:26.055Z,8.20
2023-01-08T00:33:52.677Z,8.13
2023-01-08T00:36:19.814Z,8.00
2023-01-08T00:38:47.177Z,8.05
2023-01-08T00:41:15.399Z,8.18
2023-01-08T00:43:41.960Z,8.26
2023-01-08T00:46:11.112Z,8.26
2023-01-08T00:48:38.847Z,8.26
2023-01-08T00:51:11.964Z,8.20
2023-01-08T00:53:38.850Z,8.08
2023-01-08T00:56:08.504Z,7.95
2023-01-08T00:58:36.091Z,7.94
2023-01-08T01:01:13.148Z,7.99
2023-01-08T01:03:45.935Z,8.21
2023-01-08T01:06:16.541Z,8.21
2023-01-08T01:08:44.657Z,8.26
2023-01-08T01:11:22.908Z,8.44
2023-01-08T01:13:50.387Z,8.48
2023-01-08T01:16:17.828Z,8.56
2023-01-08T01:18:45.572Z,8.42
2023-01-08T01:21:22.991Z,8.41
2023-01-08T01:23:50.440Z,8.64
2023-01-08T01:26:21.900Z,8.43
2023-01-08T01:28:50.488Z,8.24
2023-01-08T01:31:18.605Z,8.45
2023-01-08T01:33:48.515Z,8.56
2023-01-08T01:36:19.745Z,8.65
2023-01-08T01:38:50.471Z,8.79
2023-01-08T01:41:37.585Z,9.00
2023-01-08T01:44:35.396Z,8.79
2023-01-08T01:47:11.304Z,8.67
2023-01-08T01:49:38.918Z,8.66
2023-01-08T01:52:08.021Z,8.80
2023-01-08T01:54:36.525Z,8.72
2023-01-08T01:57:03.487Z,8.82
2023-01-08T01:59:30.298Z,8.71
2023-01-08T02:01:58.119Z,8.77
2023-01-08T02:04:24.842Z,8.60
2023-01-08T02:07:01.703Z,8.58
2023-01-08T02:09:57.672Z,8.77
2023-01-08T02:12:44.646Z,8.73
2023-01-08T02:15:15.322Z,8.85
2023-01-08T02:17:55.454Z,8.87
2023-01-08T02:20:29.044Z,8.85
2023-01-08T02:23:18.482Z,8.93
2023-01-08T02:26:16.263Z,8.90
2023-01-08T02:28:51.872Z,8.99
2023-01-08T02:31:20.694Z,8.84
2023-01-08T02:33:47.367Z,8.96
2023-01-08T02:36:15.912Z,8.93
2023-01-08T02:38:54.321Z,8.98
2023-01-08T02:41:25.268Z,8.95
2023-01-08T02:43:54.072Z,8.83
2023-01-08T02:46:27.724Z,8.80
2023-01-08T02:48:58.158Z,8.95
2023-01-08T02:51:50.859Z,8.87
2023-01-08T02:54:21.305Z,8.92
2023-01-08T02:56:52.375Z,8.94
2023-01-08T02:59:19.629Z,8.95
2023-01-08T03:01:46.759Z,9.04
2023-01-08T03:04:19.835Z,8.92
2023-01-08T03:06:46.612Z,8.97
2023-01-08T03:09:16.853Z,8.81
2023-01-08T03:11:54.543Z,8.73
2023-01-08T03:14:47.446Z,8.73
2023-01-08T03:17:26.827Z,8.94
2023-01-08T03:20:03.774Z,8.85
2023-01-08T03:22:31.935Z,8.74
2023-01-08T03:24:59.204Z,8.73
2023-01-08T03:27:29.241Z,8.83
2023-01-08T03:29:58.699Z,8.66
2023-01-08T03:32:26.099Z,8.60
2023-01-08T03:34:54.785Z,8.60
2023-01-08T03:37:32.456Z,8.58
2023-01-08T03:40:12.036Z,8.50
2023-01-08T03:42:38.752Z,8.51
2023-01-08T03:45:06.326Z,8.45
2023-01-08T03:47:33.800Z,8.30
2023-01-08T03:50:02.415Z,8.11
2023-01-08T03:52:31.289Z,8.20
2023-01-08T03:55:00.078Z,8.29
2023-01-08T03:57:29.677Z,8.13
2023-01-08T03:59:56.299Z,8.09
2023-01-08T04:02:23.065Z,8.10
2023-01-08T04:04:50.122Z,8.21
2023-01-08T04:07:20.208Z,8.22
2023-01-08T04:09:47.710Z,8.21
2023-01-08T04:12:17.812Z,8.39
2023-01-08T04:14:46.104Z,8.45
2023-01-08T04:17:13.714Z,8.54
2023-01-08T04:19:40.461Z,8.43
2023-01-08T04:22:07.081Z,8.50
2023-01-08T04:24:33.877Z,8.77
2023-01-08T04:27:01.072Z,8.82
2023-01-08T04:29:27.780Z,8.64
2023-01-08T04:31:57.181Z,8.64
2023-01-08T04:34:23.924Z,8.60
2023-01-08T04:36:54.853Z,8.48
2023-01-08T04:39:21.685Z,8.44
2023-01-08T04:41:50.712Z,8.42
2023-01-08T04:44:17.446Z,8.25
2023-01-08T04:46:44.124Z,8.16
2023-01-08T04:49:14.274Z,8.10
2023-01-08T04:51:41.134Z,8.24
2023-01-08T04:54:10.965Z,8.20
2023-01-08T04:56:40.766Z,8.28
2023-01-08T04:59:07.467Z,8.34
2023-01-08T05:01:34.540Z,8.34
2023-01-08T05:04:03.738Z,8.20
2023-01-08T05:06:31.405Z,8.01
2023-01-08T05:08:58.453Z,7.87
2023-01-08T05:11:25.657Z,7.95
2023-01-08T05:13:56.462Z,7.91
2023-01-08T05:16:25.674Z,8.21
2023-01-08T05:18:52.391Z,8.26
2023-01-08T05:21:19.104Z,8.44
2023-01-08T05:23:47.724Z,8.44
2023-01-08T05:26:17.458Z,8.53
2023-01-08T05:28:48.179Z,8.52
2023-01-08T05:31:18.469Z,8.44
2023-01-08T05:33:55.156Z,8.37
2023-01-08T05:36:24.983Z,8.35
2023-01-08T05:38:58.099Z,8.37
2023-01-08T05:41:25.081Z,8.37
2023-01-08T05:43:52.154Z,8.54
2023-01-08T05:46:19.463Z,8.41
2023-01-08T05:48:46.411Z,8.22
2023-01-08T05:51:15.819Z,8.06
2023-01-08T05:53:47.364Z,8.13
2023-01-08T05:56:14.905Z,8.13
2023-01-08T05:58:46.496Z,8.10
2023-01-08T06:01:20.664Z,8.01
2023-01-08T06:03:49.570Z,7.99
2023-01-08T06:06:16.871Z,8.11
2023-01-08T06:08:43.515Z,8.20
2023-01-08T06:11:12.063Z,8.14
2023-01-08T06:13:47.139Z,8.16
2023-01-08T06:16:14.018Z,8.19
2023-01-08T06:18:40.856Z,8.14
2023-01-08T06:21:07.795Z,8.20
2023-01-08T06:23:37.747Z,8.14
2023-01-08T06:26:07.520Z,8.14
2023-01-08T06:28:44.162Z,8.12
2023-01-08T06:31:10.934Z,8.07
2023-01-08T06:33:37.631Z,7.99
2023-01-08T06:36:05.568Z,8.03
2023-01-08T06:38:37.039Z,8.01
2023-01-08T06:41:09.895Z,7.96
2023-01-08T06:43:40.588Z,7.99
2023-01-08T06:46:10.693Z,8.01
2023-01-08T06:48:37.831Z,8.09
2023-01-08T06:51:06.055Z,8.23
2023-01-08T06:53:39.712Z,8.12
2023-01-08T06:56:11.004Z,8.14
2023-01-08T06:58:39.555Z,8.14
2023-01-08T07:01:08.662Z,8.12
2023-01-08T07:03:42.987Z,8.02
2023-01-08T07:06:18.589Z,7.95
2023-01-08T07:08:45.785Z,8.07
2023-01-08T07:11:12.506Z,8.16
2023-01-08T07:13:39.345Z,8.09
2023-01-08T07:16:10.754Z,7.98
2023-01-08T07:18:44.826Z,7.90
2023-01-08T07:21:11.868Z,7.93
2023-01-08T07:23:38.995Z,7.87
2023-01-08T07:26:16.277Z,7.96
2023-01-08T07:28:43.172Z,7.80
2023-01-08T07:31:10.678Z,7.74
2023-01-08T07:33:39.747Z,7.71
2023-01-08T07:36:06.992Z,7.73
2023-01-08T07:38:33.868Z,7.68
2023-01-08T07:41:00.657Z,7.71
2023-01-08T07:43:29.939Z,7.73
2023-01-08T07:45:57.072Z,7.84
2023-01-08T07:48:23.855Z,7.78
2023-01-08T07:50:50.654Z,7.79
2023-01-08T07:53:17.846Z,7.82
2023-01-08T07:55:44.767Z,7.74
2023-01-08T07:58:13.473Z,7.70
2023-01-08T08:00:40.745Z,7.63
2023-01-08T08:03:11.766Z,7.73
2023-01-08T08:05:38.972Z,7.78
2023-01-08T08:08:10.537Z,7.85
2023-01-08T08:10:38.082Z,7.90
2023-01-08T08:13:05.029Z,7.92
2023-01-08T08:15:31.658Z,7.96
2023-01-08T08:17:58.269Z,7.95
2023-01-08T08:20:25.239Z,7.94
2023-01-08T08:22:51.944Z,7.86
2023-01-08T08:25:18.873Z,7.76
2023-01-08T08:27:45.786Z,7.72
2023-01-08T08:30:13.104Z,7.80
2023-01-08T08:32:39.745Z,7.83
2023-01-08T08:35:06.838Z,7.90
2023-01-08T08:37:33.524Z,7.95
2023-01-08T08:40:00.272Z,7.98
2023-01-08T08:42:29.883Z,8.12
2023-01-08T08:44:56.672Z,8.13
2023-01-08T08:47:27.163Z,8.23
2023-01-08T08:49:55.530Z,8.25
2023-01-08T08:52:22.372Z,8.25
2023-01-08T08:54:49.416Z,8.34
2023-01-08T08:57:16.403Z,8.36
2023-01-08T08:59:50.447Z,8.52
2023-01-08T09:02:17.301Z,8.49
2023-01-08T09:04:44.505Z,8.53
2023-01-08T09:07:11.815Z,8.49
2023-01-08T09:09:39.107Z,8.65
2023-01-08T09:12:09.795Z,8.60
2023-01-08T09:14:36.841Z,8.62
2023-01-08T09:17:03.560Z,8.64
2023-01-08T09:19:30.537Z,8.71
2023-01-08T09:21:57.302Z,8.63
2023-01-08T09:24:26.491Z,8.59
2023-01-08T09:26:54.588Z,8.67
2023-01-08T09:29:24.539Z,8.62
2023-01-08T09:31:58.486Z,8.39
2023-01-08T09:34:25.299Z,8.05
2023-01-08T09:36:52.498Z,7.52
2023-01-08T09:39:19.177Z,7.30
2023-01-08T09:41:47.591Z,7.23
2023-01-08T09:44:17.526Z,7.19
2023-01-08T09:46:44.914Z,7.06
2023-01-08T09:49:17.413Z,6.98
2023-01-08T09:51:46.665Z,6.98
2023-01-08T09:54:17.722Z,7.01
2023-01-08T09:56:44.921Z,7.10
2023-01-08T09:59:17.842Z,6.97
2023-01-08T10:01:45.974Z,7.25
2023-01-08T10:04:29.225Z,7.18
2023-01-08T10:06:58.360Z,7.30
2023-01-08T10:09:30.811Z,7.22
2023-01-08T10:12:04.553Z,7.39
2023-01-08T10:14:34.471Z,7.24
2023-01-08T10:17:11.537Z,7.34
2023-01-08T10:19:38.637Z,7.27
2023-01-08T10:22:12.296Z,7.19
2023-01-08T10:24:43.364Z,7.05
2023-01-08T10:27:22.355Z,6.92
2023-01-08T10:29:52.381Z,6.84
2023-01-08T10:32:39.210Z,6.70
2023-01-08T10:35:07.042Z,6.73
2023-01-08T10:37:37.589Z,6.60
2023-01-08T10:40:42.212Z,6.48
2023-01-08T10:43:14.307Z,6.42
2023-01-08T10:45:43.007Z,6.38
2023-01-08T10:48:17.576Z,6.38
2023-01-08T10:50:44.634Z,6.49
2023-01-08T10:53:25.873Z,6.58
2023-01-08T10:56:03.101Z,6.54
2023-01-08T10:58:30.410Z,6.55
2023-01-08T11:01:10.164Z,6.59
2023-01-08T11:03:36.889Z,6.87
2023-01-08T11:06:17.190Z,6.92
2023-01-08T11:08:55.841Z,7.22
2023-01-08T11:11:23.463Z,7.20
2023-01-08T11:14:02.377Z,7.16
2023-01-08T11:16:40.041Z,7.62
2023-01-08T11:28:14.030Z,7.59
2023-01-08T11:30:45.716Z,7.57
2023-01-08T11:33:19.130Z,7.49
2023-01-08T11:35:51.551Z,7.64
2023-01-08T11:38:21.175Z,7.67
2023-01-08T11:40:51.151Z,7.78
2023-01-08T11:43:37.089Z,7.81
2023-01-08T11:46:16.578Z,7.91
2023-01-08T11:48:58.585Z,7.86
2023-01-08T11:51:59.374Z,7.89
2023-01-08T11:54:32.608Z,7.93
2023-01-08T11:57:23.635Z,7.94
2023-01-08T12:00:25.680Z,7.82
2023-01-08T12:02:58.387Z,7.88
2023-01-08T12:05:29.243Z,7.94
2023-01-08T12:07:55.916Z,7.96
2023-01-08T12:10:45.850Z,7.87
2023-01-08T12:13:43.508Z,7.64
2023-01-08T12:16:28.816Z,7.91
2023-01-08T12:19:23.516Z,7.93
2023-01-08T12:22:08.920Z,7.98
2023-01-08T12:25:05.867Z,8.11
2023-01-08T12:28:00.438Z,7.84
2023-01-08T12:31:08.619Z,7.75
2023-01-08T12:33:44.708Z,7.79
2023-01-08T12:36:17.581Z,7.93
2023-01-08T12:38:46.986Z,7.92
2023-01-08T12:41:16.766Z,7.79
2023-01-08T12:43:52.541Z,7.95
2023-01-08T12:46:19.595Z,7.88
2023-01-08T12:48:50.237Z,7.69
2023-01-08T12:51:38.626Z,7.55
2023-01-08T12:54:08.380Z,7.59
2023-01-08T12:56:55.710Z,7.74
2023-01-08T12:59:39.486Z,7.73
2023-01-08T13:02:31.299Z,7.77
2023-01-08T13:04:58.059Z,7.82
2023-01-08T13:07:28.377Z,7.86
2023-01-08T13:10:03.223Z,7.87
2023-01-08T13:12:37.929Z,7.68
2023-01-08T13:15:05.374Z,7.68
2023-01-08T13:17:32.068Z,7.78
2023-01-08T13:20:03.841Z,7.67
2023-01-08T13:22:35.289Z,7.76
2023-01-08T13:25:17.167Z,7.92
2023-01-08T13:27:45.553Z,7.94
2023-01-08T13:30:34.401Z,7.76
2023-01-08T13:33:01.952Z,7.73
2023-01-08T13:35:31.517Z,8.02
2023-01-08T13:38:10.774Z,7.75
2023-01-08T13:40:43.595Z,7.79
2023-01-08T13:43:24.924Z,7.92
2023-01-08T13:46:00.823Z,7.93
2023-01-08T13:48:49.377Z,8.05
2023-01-08T13:51:45.874Z,8.12
2023-01-08T13:54:12.433Z,8.13
2023-01-08T13:56:44.017Z,8.02
2023-01-08T13:59:26.093Z,7.90
2023-01-08T14:01:54.366Z,7.86
2023-01-08T14:04:24.544Z,7.73
2023-01-08T14:06:51.266Z,7.61
2023-01-08T14:09:25.280Z,7.46
2023-01-08T14:11:55.901Z,7.41
2023-01-08T14:14:27.426Z,7.54
2023-01-08T14:16:57.756Z,7.65
2023-01-08T14:19:25.887Z,7.66
2023-01-08T14:21:55.315Z,7.74
2023-01-08T14:24:25.939Z,7.90
2023-01-08T14:26:54.897Z,8.10
2023-01-08T14:29:26.694Z,8.16
2023-01-08T14:31:59.454Z,8.31
2023-01-08T14:34:28.752Z,8.13
2023-01-08T14:36:57.648Z,8.05
2023-01-08T14:39:33.363Z,8.11
2023-01-08T14:42:42.844Z,8.14
2023-01-08T14:45:24.921Z,8.08
2023-01-08T14:47:54.763Z,7.91
2023-01-08T14:50:32.855Z,7.90
2023-01-08T14:53:25.877Z,7.85
2023-01-08T14:55:53.656Z,7.61
2023-01-08T14:58:35.861Z,7.41
2023-01-08T15:01:08.632Z,7.25
2023-01-08T15:03:38.290Z,7.33
2023-01-08T15:06:05.992Z,7.35
2023-01-08T15:08:38.087Z,7.30
2023-01-08T15:11:22.166Z,7.26
2023-01-08T15:13:51.064Z,7.53
2023-01-08T15:16:39.701Z,7.71
2023-01-08T15:19:19.936Z,7.76
2023-01-08T15:21:51.154Z,7.68
2023-01-08T15:24:32.843Z,7.64
2023-01-08T15:27:00.670Z,7.71
2023-01-08T15:29:33.284Z,7.84
2023-01-08T15:32:19.691Z,7.80
2023-01-08T15:34:46.579Z,7.63
2023-01-08T15:37:15.066Z,7.32
2023-01-08T15:39:42.586Z,7.17
2023-01-08T15:42:36.975Z,6.85
2023-01-08T15:45:04.838Z,6.91
2023-01-08T15:47:32.170Z,6.71
2023-01-08T15:49:59.336Z,6.60
2023-01-08T15:52:29.927Z,6.70
2023-01-08T15:54:58.431Z,6.54
2023-01-08T15:57:25.532Z,6.45
2023-01-08T15:59:52.633Z,6.41
2023-01-08T16:02:20.076Z,6.36
2023-01-08T16:04:52.127Z,6.45
2023-01-08T16:07:18.927Z,6.38
2023-01-08T16:09:45.686Z,6.23
2023-01-08T16:12:12.672Z,6.06
2023-01-08T16:14:39.319Z,5.89
2023-01-08T16:17:10.127Z,5.92
2023-01-08T16:19:36.846Z,5.94
2023-01-08T16:22:04.639Z,5.77
2023-01-08T16:24:31.738Z,5.51
2023-01-08T16:26:58.412Z,5.29
2023-01-08T16:29:27.713Z,5.05
2023-01-08T16:31:55.343Z,4.91
2023-01-08T16:34:22.129Z,4.76
2023-01-08T16:36:49.067Z,4.71
2023-01-08T16:39:19.015Z,4.64
2023-01-08T16:41:47.462Z,4.66
2023-01-08T16:44:27.020Z,4.69
2023-01-08T16:46:56.176Z,4.75
2023-01-08T16:49:22.829Z,4.70
2023-01-08T16:51:49.667Z,4.66
2023-01-08T16:54:16.881Z,5.16
2023-01-08T16:56:43.672Z,5.30
2023-01-08T16:59:22.310Z,5.32
2023-01-08T17:01:50.628Z,5.31
2023-01-08T17:04:17.455Z,5.33
2023-01-08T17:06:44.510Z,5.28
2023-01-08T17:09:11.824Z,5.03
2023-01-08T17:11:38.876Z,4.85
2023-01-08T17:14:06.032Z,5.09
2023-01-08T17:16:32.912Z,5.14
2023-01-08T17:18:59.772Z,4.92
2023-01-08T17:21:26.522Z,4.67
2023-01-08T17:23:53.218Z,4.59
2023-01-08T17:26:20.224Z,4.51
2023-01-08T17:28:47.391Z,4.35
2023-01-08T17:31:18.554Z,4.46
2023-01-08T17:33:50.370Z,4.51
2023-01-08T17:36:22.780Z,4.49
2023-01-08T17:38:53.731Z,4.53
2023-01-08T17:41:40.245Z,4.61
2023-01-08T17:44:09.119Z,4.56
2023-01-08T17:46:36.800Z,4.88
2023-01-08T17:49:04.499Z,4.78
2023-01-08T17:51:32.533Z,4.63
2023-01-08T17:53:59.775Z,4.57
2023-01-08T17:56:27.064Z,4.71
2023-01-08T17:58:53.872Z,4.94
2023-01-08T18:01:21.296Z,5.46
2023-01-08T18:03:48.221Z,5.46
2023-01-08T18:06:15.128Z,5.42
2023-01-08T18:08:41.823Z,5.30
2023-01-08T18:11:09.860Z,5.14
2023-01-08T18:13:37.099Z,4.98
2023-01-08T18:16:06.028Z,4.78
2023-01-08T18:18:33.285Z,4.69
2023-01-08T18:21:00.019Z,4.67
2023-01-08T18:23:26.838Z,4.69
2023-01-08T18:25:53.469Z,4.63
2023-01-08T18:28:20.109Z,4.66
2023-01-08T18:30:46.782Z,4.68
2023-01-08T18:33:14.880Z,4.79
2023-01-08T18:35:42.054Z,4.66
2023-01-08T18:38:17.917Z,4.70
2023-01-08T18:40:45.673Z,4.76
2023-01-08T18:43:12.581Z,4.78
2023-01-08T18:45:39.583Z,4.84
2023-01-08T18:48:07.898Z,4.94
2023-01-08T18:50:40.675Z,5.01
2023-01-08T18:53:08.929Z,5.17
2023-01-08T18:55:37.169Z,5.21
2023-01-08T18:58:04.750Z,5.14
2023-01-08T19:00:31.918Z,4.95
2023-01-08T19:02:58.732Z,4.93
2023-01-08T19:05:25.845Z,5.18
2023-01-08T19:07:53.960Z,5.45
2023-01-08T19:10:21.687Z,5.39
2023-01-08T19:12:48.879Z,5.51
2023-01-08T19:15:15.652Z,5.62
2023-01-08T19:17:42.345Z,5.69
2023-01-08T19:20:09.518Z,5.72
2023-01-08T19:22:36.235Z,5.73
2023-01-08T19:25:03.055Z,5.68
2023-01-08T19:27:29.781Z,5.67
2023-01-08T19:29:56.438Z,5.59
2023-01-08T19:32:23.210Z,5.75
2023-01-08T19:34:50.673Z,5.54
2023-01-08T19:37:18.476Z,5.46
2023-01-08T19:39:45.247Z,5.45
2023-01-08T19:42:30.752Z,5.67
2023-01-08T19:44:57.548Z,5.54
2023-01-08T19:47:24.184Z,5.41
2023-01-08T19:49:50.862Z,5.31
2023-01-08T19:52:17.908Z,5.03
2023-01-08T19:54:44.828Z,5.01
2023-01-08T19:57:11.669Z,4.80
2023-01-08T19:59:38.236Z,4.88
2023-01-08T20:02:05.120Z,5.09
2023-01-08T20:04:33.524Z,4.96
2023-01-08T20:07:00.929Z,4.79
2023-01-08T20:09:29.096Z,4.80
2023-01-08T20:11:56.129Z,4.59
2023-01-08T20:14:22.746Z,4.51
2023-01-08T20:16:49.440Z,4.64
2023-01-08T20:19:16.158Z,4.76
2023-01-08T20:21:42.844Z,4.75
2023-01-08T20:24:14.141Z,4.63
2023-01-08T20:26:45.107Z,4.51
2023-01-08T20:29:13.026Z,4.56
2023-01-08T20:31:40.170Z,4.43
2023-01-08T20:34:17.026Z,4.36
2023-01-08T20:36:46.760Z,4.29
2023-01-08T20:39:15.812Z,4.29
2023-01-08T20:41:50.259Z,4.20
2023-01-08T20:44:30.478Z,4.21
2023-01-08T20:46:57.192Z,4.27
2023-01-08T20:49:26.394Z,4.25
2023-01-08T20:51:59.152Z,4.06
2023-01-08T20:54:27.364Z,4.08
2023-01-08T20:56:58.324Z,3.93
2023-01-08T20:59:25.481Z,3.77
2023-01-08T21:01:52.646Z,3.81
2023-01-08T21:04:19.805Z,4.09
2023-01-08T21:06:46.639Z,3.87
2023-01-08T21:09:16.171Z,4.19
2023-01-08T21:11:42.827Z,4.32
2023-01-08T21:14:10.370Z,4.43
2023-01-08T21:16:39.486Z,4.42
2023-01-08T21:19:06.529Z,4.47
2023-01-08T21:21:34.983Z,4.42
2023-01-08T21:24:04.531Z,4.51
2023-01-08T21:26:33.855Z,4.69
2023-01-08T21:29:06.121Z,4.91
2023-01-08T21:31:33.688Z,5.02
2023-01-08T21:34:01.707Z,5.04
2023-01-08T21:36:31.285Z,4.85
2023-01-08T21:39:00.275Z,4.85
2023-01-08T21:41:47.292Z,4.69
2023-01-08T21:44:33.283Z,4.55
2023-01-08T21:47:00.641Z,4.71
2023-01-08T21:49:27.653Z,4.56
2023-01-08T21:52:13.169Z,4.49
2023-01-08T21:54:40.060Z,4.30
2023-01-08T21:57:07.754Z,4.22
2023-01-08T21:59:34.779Z,4.50
2023-01-08T22:02:01.866Z,4.65
2023-01-08T22:04:28.602Z,4.57
2023-01-08T22:06:55.446Z,4.58
2023-01-08T22:09:22.077Z,4.57
2023-01-08T22:11:48.710Z,4.47
2023-01-08T22:14:16.203Z,4.37
2023-01-08T22:16:42.813Z,4.42
2023-01-08T22:19:10.492Z,4.27
2023-01-08T22:21:37.206Z,4.45
2023-01-08T22:24:03.986Z,4.48
2023-01-08T22:26:30.805Z,4.62
2023-01-08T22:28:57.396Z,4.72
2023-01-08T22:31:24.358Z,4.79
2023-01-08T22:33:54.416Z,4.61
2023-01-08T22:36:21.253Z,4.76
2023-01-08T22:38:48.078Z,4.71
2023-01-08T22:41:20.401Z,4.87
2023-01-08T22:43:47.309Z,4.90
2023-01-08T22:46:15.789Z,5.06
2023-01-08T22:48:43.702Z,5.16
2023-01-08T22:51:11.152Z,5.21
2023-01-08T22:53:38.045Z,5.20
2023-01-08T22:56:12.144Z,5.34
2023-01-08T22:58:40.527Z,5.44
2023-01-08T23:01:18.972Z,5.57
2023-01-08T23:03:49.049Z,5.72
2023-01-08T23:06:17.374Z,5.72
2023-01-08T23:08:44.821Z,5.85
2023-01-08T23:11:13.777Z,5.91
2023-01-08T23:13:40.554Z,5.98
2023-01-08T23:16:08.878Z,5.91
2023-01-08T23:18:36.757Z,5.96
2023-01-08T23:21:08.556Z,5.99
2023-01-08T23:23:35.555Z,5.97
2023-01-08T23:26:28.295Z,6.01
2023-01-08T23:28:55.869Z,6.05
2023-01-08T23:31:25.153Z,6.09
2023-01-08T23:33:52.139Z,6.15
2023-01-08T23:36:21.236Z,6.07
2023-01-08T23:38:50.519Z,5.83
2023-01-08T23:41:18.239Z,5.75
2023-01-08T23:43:46.017Z,5.82
2023-01-08T23:46:13.433Z,5.68
2023-01-08T23:48:40.092Z,5.58
2023-01-08T23:51:07.222Z,5.57
2023-01-08T23:53:36.464Z,5.52
2023-01-08T23:56:03.425Z,5.65
2023-01-08T23:58:30.434Z,5.65
